Flight Track Log - Related Links

Times and Time Zones

All times are in EDT time to prevent confusion due to time zone crossing. See the AAL1358 flight status page for this flight to view local times or setup timezone preferences in your user account.

Time Position Orientation Groundspeed Altitude Reporting Facility
EDT Latitude Longitude Course Direction KTS MPH feet Rate Location/Type
Wed 07:02:37 PM 47.3910 -122.3080 181° South 192 221 2,100  Level FlightAware
Wed 07:02:47 PM 47.3790 -122.3090 183° South 217 250 2,300 1,569 Climbing FlightAware
Wed 07:03:42 PM 47.3180 -122.2990 174° South 260 299 3,800 1,200 Climbing FlightAware
Wed 07:04:12 PM 47.2940 -122.2670 138° Southeast 263 303 4,000 2,040 Climbing FlightAware
Wed 07:04:32 PM 47.3010 -122.2240 76° East 267 307 5,500 3,240 Climbing FlightAware
Wed 07:05:02 PM 47.3020 -122.1640 89° East 277 319 6,700 2,667 Climbing FlightAware
Wed 07:05:17 PM 47.3090 -122.1350 70° East 275 316 7,500 2,850 Climbing FlightAware
Wed 07:05:42 PM 47.3240 -122.0930 62° Northeast 279 321 8,600 2,509 Climbing FlightAware
Wed 07:06:12 PM 47.3400 -122.0410 66° East 291 335 9,800 2,229 Climbing FlightAware
Wed 07:06:52 PM 47.3610 -121.9620 69° East 316 364 11,200 1,680 Climbing FlightAware
Wed 07:07:27 PM 47.3820 -121.8860 68° East 356 410 11,900 2,188 Climbing FlightAware
Wed 07:08:17 PM 47.4130 -121.7790 67° East 356 410 14,300 2,800 Climbing FlightAware
Wed 07:08:57 PM 47.4290 -121.6790 77° East 369 425 16,100 2,640 Climbing FlightAware
Wed 07:09:32 PM 47.4280 -121.5870 91° East 380 437 17,600 2,325 Climbing FlightAware
Wed 07:10:17 PM 47.4260 -121.4660 91° East 397 457 19,200 2,200 Climbing FlightAware
Wed 07:11:02 PM 47.4240 -121.3500 91° East 404 465 20,900 2,267 Climbing FlightAware
Wed 07:11:47 PM 47.4220 -121.2320 91° East 408 470 22,600 2,067 Climbing FlightAware
Wed 07:12:32 PM 47.4200 -121.1040 91° East 417 480 24,000 1,835 Climbing FlightAware
Wed 07:13:12 PM 47.4180 -120.9820 91° East 427 491 25,200 1,765 Climbing FlightAware
Wed 07:13:57 PM 47.4150 -120.8440 92° East 435 501 26,500 1,263 Climbing FlightAware
Wed 07:14:47 PM 47.4140 -120.7020 91° East 439 505 27,200 1,467 Climbing FlightAware
Wed 07:15:27 PM 47.4100 -120.5760 93° East 449 517 28,700 1,800 Climbing FlightAware
Wed 07:16:17 PM 47.4060 -120.4200 92° East 454 522 29,900 1,533 Climbing FlightAware
Wed 07:16:57 PM 47.4030 -120.2940 92° East 452 520 31,000 1,500 Climbing FlightAware
Wed 07:17:37 PM 47.4000 -120.1730 92° East 453 521 31,900 1,341 Climbing FlightAware
Wed 07:18:22 PM 47.3960 -120.0350 92° East 454 522 32,900 1,341 Climbing FlightAware
Wed 07:19:02 PM 47.3930 -119.9200 92° East 452 520 33,800 1,425 Climbing FlightAware
Wed 07:19:42 PM 47.3890 -119.7910 93° East 447 514 34,800 1,412 Climbing FlightAware
Wed 07:20:27 PM 47.3860 -119.6620 92° East 443 510 35,800 947 Climbing FlightAware
Wed 07:21:17 PM 47.3810 -119.5090 93° East 441 507 36,300 758 Climbing FlightAware
Wed 07:22:02 PM 47.3810 -119.3680 90° East 444 511 37,000 467 Climbing FlightAware
Wed 07:22:47 PM 47.3800 -119.2460 91° East 445 512 37,000  Level FlightAware
Wed 07:23:27 PM 47.3800 -119.1430 90° East 445 512 37,000  Level FlightAware
Wed 07:24:07 PM 47.3800 -119.0400 90° East 445 512 37,000  Level FlightAware
Wed 07:24:47 PM 47.3800 -118.9360 90° East 445 512 37,000  Level FlightAware
Wed 07:25:27 PM 47.3800 -118.8330 90° East 445 512 37,000  Level FlightAware
Wed 07:26:17 PM 47.3800 -118.7040 90° East 445 512 37,000  Level FlightAware
Wed 07:26:57 PM 47.3800 -118.6000 90° East 445 512 37,000  Level FlightAware
Wed 07:27:37 PM 47.3800 -118.4970 90° East 445 512 37,000  Level FlightAware
Wed 07:28:17 PM 47.3800 -118.3930 90° East 445 512 37,000  Level FlightAware
Wed 07:28:57 PM 47.3800 -118.2900 90° East 445 512 37,000  Level FlightAware
Wed 07:29:47 PM 47.3800 -118.1610 90° East 445 512 37,000  Level FlightAware
Wed 07:30:27 PM 47.3800 -118.0570 90° East 445 512 37,000  Level FlightAware
Wed 07:31:07 PM 47.3800 -117.9540 90° East 445 512 37,000  Level FlightAware
Wed 07:31:47 PM 47.3800 -117.8510 90° East 445 512 37,000  Level FlightAware
Wed 07:32:28 PM 47.3636 -117.4669 90° East 445 512 37,000  Level Salt Center
Wed 07:33:29 PM 47.3606 -117.2853 91° East 447 514 37,000  Level Salt Center
Wed 07:34:31 PM 47.3572 -117.1031 91° East 452 520 37,000  Level Salt Center
Wed 07:35:33 PM 47.3536 -116.9197 92° East 455 524 37,000  Level Salt Center
Wed 07:36:34 PM 47.3494 -116.7000 92° East 454 522 37,000  Level Salt Center
Wed 07:37:36 PM 47.3447 -116.5150 92° East 455 524 37,000  Level Salt Center
Wed 07:38:38 PM 47.3403 -116.3300 92° East 455 524 37,000  Level Salt Center
Wed 07:39:46 PM 47.3342 -116.1092 92° East 452 520 37,000  Level Seattle Center
Wed 07:40:47 PM 47.3292 -115.9253 92° East 452 520 37,000  Level Seattle Center
Wed 07:41:48 PM 47.3231 -115.7414 93° East 452 520 37,000  Level Seattle Center
Wed 07:42:49 PM 47.3183 -115.5569 92° East 451 519 37,000  Level Seattle Center
Wed 07:43:50 PM 47.3122 -115.3736 93° East 451 519 37,000  Level Seattle Center
Wed 07:44:51 PM 47.3058 -115.1900 93° East 451 519 37,000  Level Seattle Center
Wed 07:45:52 PM 47.2983 -115.0069 93° East 451 519 37,000  Level Seattle Center
Wed 07:46:53 PM 47.2908 -114.8228 93° East 452 520 37,000 -49 Level Seattle Center
Wed 07:47:54 PM 47.2836 -114.6389 93° East 453 521 36,900  Descending Seattle Center
Wed 07:48:55 PM 47.2742 -114.4214 94° East 449 517 37,000 49 Climbing Seattle Center
Wed 07:49:56 PM 47.2658 -114.2375 94° East 452 520 37,000  Level Seattle Center
Wed 07:50:58 PM 47.2583 -114.0536 93° East 453 521 37,000  Level Salt Center
Wed 07:52:00 PM 47.2492 -113.8697 94° East 455 524 37,000  Level Salt Center
Wed 07:53:02 PM 47.2411 -113.6858 94° East 454 522 37,000  Level Salt Center
Wed 07:54:04 PM 47.2311 -113.5011 94° East 456 525 37,000  Level Salt Center
Wed 07:55:05 PM 47.2206 -113.2806 94° East 455 524 37,000  Level Salt Center
Wed 07:56:07 PM 47.2092 -113.0956 95° East 461 531 37,000  Level Salt Center
Wed 07:57:09 PM 47.1994 -112.9139 94° East 456 525 37,000  Level Salt Center
Wed 07:58:11 PM 47.1894 -112.7292 94° East 456 525 37,000 -48 Level Salt Center
Wed 07:59:13 PM 47.1772 -112.5439 95° East 458 527 36,900  Descending Salt Center
Wed 08:00:15 PM 47.1681 -112.3608 94° East 453 521 37,000 49 Climbing Salt Center
Wed 08:01:16 PM 47.1550 -112.1358 95° East 462 532 37,000  Level Salt Center
Wed 08:02:18 PM 47.1417 -111.9503 96° East 461 531 37,000  Level Salt Center
Wed 08:03:20 PM 47.1303 -111.7608 95° East 467 537 37,000  Level Salt Center
Wed 08:04:22 PM 47.1169 -111.5733 96° East 468 539 37,000 -48 Level Salt Center
Wed 08:05:24 PM 47.1036 -111.3867 96° East 466 536 36,900  Descending Salt Center
Wed 08:06:25 PM 47.0911 -111.1986 96° East 467 537 37,000  Climbing Salt Center
Wed 08:07:27 PM 47.0742 -110.9714 96° East 471 542 36,900  Descending Salt Center
Wed 08:08:29 PM 47.0603 -110.7819 96° East 472 543 37,000 48 Climbing Salt Center
Wed 08:09:31 PM 47.0458 -110.5914 96° East 472 543 37,000  Level Salt Center
Wed 08:10:32 PM 47.0308 -110.4003 96° East 474 545 37,000  Level Salt Center
Wed 08:11:34 PM 47.0167 -110.2083 96° East 476 548 37,000  Level Salt Center
Wed 08:12:36 PM 46.9997 -109.9783 96° East 477 549 37,000  Level Salt Center
Wed 08:13:38 PM 46.9839 -109.7875 97° East 475 547 37,000  Level Salt Center
Wed 08:14:40 PM 46.9683 -109.5961 97° East 475 547 37,000  Level Salt Center
Wed 08:15:41 PM 46.9514 -109.4036 97° East 478 550 37,000  Level Salt Center
Wed 08:16:43 PM 46.9347 -109.2108 97° East 480 552 37,000  Level Salt Center
Wed 08:17:45 PM 46.9119 -108.9969 99° East 470 541 37,000  Level Salt Center
Wed 08:18:46 PM 46.8956 -108.8139 97° East 474 545 37,000  Level Salt Center
Wed 08:19:48 PM 46.8747 -108.5981 98° East 478 550 37,000  Level Salt Center
Wed 08:20:50 PM 46.8581 -108.4133 97° East 480 552 37,000  Level Salt Center
Wed 08:21:52 PM 46.8392 -108.2281 98° East 480 552 37,000  Level Salt Center
Wed 08:22:53 PM 46.8186 -108.0133 98° East 479 551 37,000  Level Salt Center
Wed 08:23:55 PM 46.8000 -107.8264 98° East 485 558 37,000 194 Level Salt Center
Wed 08:24:57 PM 46.7772 -107.6117 99° East 482 555 37,400 581 Climbing Salt Center
Wed 08:25:59 PM 46.7583 -107.4281 98° East 480 552 38,200 780 Climbing Salt Center
Wed 08:27:00 PM 46.7358 -107.2125 99° East 480 552 39,000 390 Climbing Salt Center
Wed 08:28:02 PM 46.7161 -107.0289 99° East 480 552 39,000  Level Salt Center
Wed 08:29:04 PM 46.6947 -106.8442 100° East 481 554 39,000  Level Salt Center
Wed 08:30:05 PM 46.6717 -106.6317 99° East 479 551 39,000  Level Salt Center
Wed 08:31:07 PM 46.6500 -106.4483 100° East 478 550 39,000  Level Salt Center
Wed 08:32:09 PM 46.6250 -106.2311 99° East 483 556 39,000  Level Salt Center
Wed 08:33:10 PM 46.6022 -106.0494 100° East 481 554 39,000  Level Salt Center
Wed 08:34:12 PM 46.5797 -105.8661 100° East 482 555 39,000  Level Salt Center
Wed 08:35:14 PM 46.5533 -105.6492 100° East 484 557 39,000  Level Salt Center
Wed 08:36:16 PM 46.5300 -105.4667 100° East 483 556 39,000  Level Salt Center
Wed 08:37:17 PM 46.5044 -105.2550 100° East 480 552 39,000  Level Salt Center
Wed 08:38:19 PM 46.4817 -105.0731 100° East 479 551 39,000  Level Salt Center
Wed 08:39:21 PM 46.4547 -104.8619 100° East 477 549 39,000 -48 Level Salt Center
Wed 08:40:23 PM 46.4314 -104.6739 100° East 475 547 38,900  Descending Salt Center
Wed 08:41:24 PM 46.4069 -104.4903 101° East 471 542 39,000 49 Climbing Salt Center
Wed 08:42:26 PM 46.3828 -104.3042 101° East 471 542 39,000  Level Salt Center
Wed 08:43:28 PM 46.3575 -104.1211 101° East 468 539 39,000  Level Salt Center
Wed 08:44:30 PM 46.3322 -103.9347 101° East 472 543 39,000  Level Salt Center
Wed 08:45:31 PM 46.3072 -103.7489 101° East 474 545 39,000  Level Salt Center
Wed 08:46:33 PM 46.2806 -103.5633 102° East 474 545 39,000 -49 Level Salt Center
Wed 08:47:34 PM 46.2497 -103.3375 101° East 476 548 38,900  Descending Salt Center
Wed 08:48:15 PM 46.2344 -103.2300 102° East 479 551 39,000 58 Climbing Minneapolis Center
Wed 08:49:17 PM 46.2072 -103.0447 102° East 477 549 39,000  Level Minneapolis Center
Wed 08:50:19 PM 46.1794 -102.8578 102° East 478 550 39,000  Level Minneapolis Center
Wed 08:51:21 PM 46.1467 -102.6347 102° East 477 549 39,000  Level Minneapolis Center
Wed 08:52:23 PM 46.1189 -102.4481 102° East 478 550 39,000  Level Minneapolis Center
Wed 08:53:25 PM 46.0875 -102.2500 103° East 475 547 39,000  Level Minneapolis Center
Wed 08:54:27 PM 46.0597 -102.0656 102° East 473 544 39,000  Level Minneapolis Center
Wed 08:55:29 PM 46.0306 -101.8806 103° East 473 544 39,000  Level Minneapolis Center
Wed 08:56:31 PM 46.0011 -101.6964 103° East 473 544 39,000  Level Minneapolis Center
Wed 08:57:33 PM 45.9722 -101.5119 103° East 474 545 39,000  Level Minneapolis Center
Wed 08:58:35 PM 45.9431 -101.3292 103° East 471 542 39,000  Level Minneapolis Center
Wed 08:59:37 PM 45.9067 -101.1103 103° East 470 541 39,000  Level Minneapolis Center
Wed 09:00:39 PM 45.8767 -100.9294 103° East 468 539 39,000  Level Minneapolis Center
Wed 09:01:41 PM 45.8458 -100.7483 104° East 467 537 39,000  Level Minneapolis Center
Wed 09:02:43 PM 45.8147 -100.5678 104° East 467 537 39,000  Level Minneapolis Center
Wed 09:03:45 PM 45.7842 -100.3886 104° East 465 535 39,000  Level Minneapolis Center
Wed 09:04:47 PM 45.7536 -100.2042 103° East 469 540 39,000  Level Minneapolis Center
Wed 09:05:49 PM 45.7228 -100.0231 104° East 467 537 39,000  Level Minneapolis Center
Wed 09:06:51 PM 45.6836 -99.8033 104° East 471 542 39,000  Level Minneapolis Center
Wed 09:07:54 PM 45.6511 -99.6214 104° East 470 541 39,000  Level Minneapolis Center
Wed 09:13:27 PM 45.4630 -98.6080 104° East 471 542 39,000  Level FlightAware
Wed 09:14:07 PM 45.4400 -98.4870 105° East 469 540 39,000  Level FlightAware
Wed 09:14:52 PM 45.4140 -98.3580 106° East 469 540 39,000  Level FlightAware
Wed 09:15:32 PM 45.3820 -98.2420 111° Southeast 470 541 39,000  Level FlightAware
Wed 09:16:17 PM 45.3500 -98.1220 111° Southeast 468 539 39,000  Level FlightAware
Wed 09:16:57 PM 45.3230 -98.0250 112° Southeast 468 539 39,000  Level FlightAware
Wed 09:17:42 PM 45.2800 -97.8740 112° Southeast 467 537 39,000  Level FlightAware
Wed 09:18:22 PM 45.2470 -97.7570 112° Southeast 466 536 39,000  Level FlightAware
Wed 09:19:02 PM 45.2180 -97.6540 112° Southeast 465 535 39,000  Level FlightAware
Wed 09:19:47 PM 45.1780 -97.5130 112° Southeast 464 534 39,000  Level FlightAware
Wed 09:20:27 PM 45.1470 -97.4020 112° Southeast 464 534 39,000  Level FlightAware
Wed 09:21:12 PM 45.1110 -97.2780 112° Southeast 464 534 39,000  Level FlightAware
Wed 09:21:52 PM 45.0780 -97.1630 112° Southeast 463 533 39,000  Level FlightAware
Wed 09:22:32 PM 45.0470 -97.0550 112° Southeast 462 532 39,000  Level FlightAware
Wed 09:23:17 PM 45.0090 -96.9260 113° Southeast 462 532 39,000  Level FlightAware
Wed 09:23:57 PM 44.9770 -96.8160 112° Southeast 461 531 39,000  Level FlightAware
Wed 09:24:37 PM 44.9460 -96.7080 112° Southeast 460 529 39,000  Level FlightAware
Wed 09:25:22 PM 44.9090 -96.5830 113° Southeast 459 528 39,000  Level FlightAware
Wed 09:26:02 PM 44.8760 -96.4730 113° Southeast 458 527 39,000  Level FlightAware
Wed 09:26:47 PM 44.8400 -96.3510 113° Southeast 457 526 39,000  Level FlightAware
Wed 09:27:27 PM 44.8060 -96.2350 112° Southeast 456 525 39,000  Level FlightAware
Wed 09:28:12 PM 44.7700 -96.1150 113° Southeast 456 525 39,000  Level FlightAware
Wed 09:28:52 PM 44.7370 -96.0070 113° Southeast 455 524 39,000  Level FlightAware
Wed 09:29:32 PM 44.7050 -95.9020 113° Southeast 454 522 39,000  Level FlightAware
Wed 09:30:17 PM 44.6660 -95.7720 113° Southeast 455 524 39,000  Level FlightAware
Wed 09:30:57 PM 44.6340 -95.6660 113° Southeast 456 525 39,000  Level FlightAware
Wed 09:31:42 PM 44.5960 -95.5450 114° Southeast 456 525 39,000  Level FlightAware
Wed 09:32:22 PM 44.5630 -95.4390 114° Southeast 458 527 39,000  Level FlightAware
Wed 09:33:02 PM 44.5220 -95.3330 118° Southeast 460 529 39,000  Level FlightAware
Wed 09:33:47 PM 44.4750 -95.2120 119° Southeast 462 532 39,000  Level FlightAware
Wed 09:34:27 PM 44.4340 -95.1050 118° Southeast 463 533 39,000  Level FlightAware
Wed 09:35:12 PM 44.3910 -94.9930 118° Southeast 465 535 39,000  Level FlightAware
Wed 09:35:52 PM 44.3500 -94.8870 118° Southeast 465 535 39,000  Level FlightAware
Wed 09:36:37 PM 44.3010 -94.7640 119° Southeast 466 536 39,000  Level FlightAware
Wed 09:37:17 PM 44.2600 -94.6580 118° Southeast 466 536 39,000  Level FlightAware
Wed 09:37:57 PM 44.2190 -94.5530 119° Southeast 466 536 39,000  Level FlightAware
Wed 09:38:37 PM 44.1780 -94.4500 119° Southeast 467 537 39,000  Level FlightAware
Wed 09:39:22 PM 44.1320 -94.3350 119° Southeast 468 539 39,000  Level FlightAware
Wed 09:40:02 PM 44.0900 -94.2290 119° Southeast 468 539 39,000  Level FlightAware
Wed 09:40:47 PM 44.0410 -94.1070 119° Southeast 470 541 39,000  Level FlightAware
Wed 09:41:27 PM 43.9990 -94.0020 119° Southeast 471 542 39,000  Level FlightAware
Wed 09:42:07 PM 43.9560 -93.8960 119° Southeast 473 544 39,000  Level FlightAware
Wed 09:42:52 PM 43.9090 -93.7790 119° Southeast 475 547 39,000  Level FlightAware
Wed 09:43:32 PM 43.8660 -93.6730 119° Southeast 477 549 39,000  Level FlightAware
Wed 09:44:17 PM 43.8180 -93.5550 119° Southeast 478 550 39,000  Level FlightAware
Wed 09:44:57 PM 43.7740 -93.4480 120° Southeast 480 552 39,000 -300 Level FlightAware
Wed 09:45:37 PM 43.7300 -93.3420 120° Southeast 477 549 38,600 -776 Descending FlightAware
Wed 09:46:22 PM 43.6800 -93.2220 120° Southeast 463 533 37,900 -988 Descending FlightAware
Wed 09:47:02 PM 43.6380 -93.1210 120° Southeast 459 528 37,200 -988 Descending FlightAware
Wed 09:47:47 PM 43.5920 -93.0070 119° Southeast 459 528 36,500 -918 Descending FlightAware
Wed 09:48:27 PM 43.5500 -92.9070 120° Southeast 454 522 35,900 -975 Descending FlightAware
Wed 09:49:07 PM 43.5090 -92.8090 120° Southeast 451 519 35,200 -635 Descending FlightAware
Wed 09:49:52 PM 43.4590 -92.6920 120° Southeast 453 521 35,000 -141 Descending FlightAware
Wed 09:50:32 PM 43.4190 -92.5960 120° Southeast 454 522 35,000  Level FlightAware
Wed 09:51:17 PM 43.3720 -92.4860 120° Southeast 456 525 35,000  Level FlightAware
Wed 09:51:57 PM 43.3300 -92.3860 120° Southeast 457 526 35,000  Level FlightAware
Wed 09:52:37 PM 43.2850 -92.2820 121° Southeast 458 527 35,000  Level FlightAware
Wed 09:53:22 PM 43.2400 -92.1760 120° Southeast 460 529 35,000  Level FlightAware
Wed 09:54:02 PM 43.1970 -92.0740 120° Southeast 461 531 35,000  Level FlightAware
Wed 09:54:42 PM 43.1520 -91.9720 121° Southeast 463 533 35,000  Level FlightAware
Wed 09:55:27 PM 43.1070 -91.8660 120° Southeast 464 534 35,000  Level FlightAware
Wed 09:56:07 PM 43.0620 -91.7640 121° Southeast 466 536 35,000 -1,129 Level FlightAware
Wed 09:56:52 PM 43.0110 -91.6450 120° Southeast 464 534 33,400 -2,612 Descending FlightAware
Wed 09:57:32 PM 42.9720 -91.5420 117° Southeast 470 541 31,300 -1,694 Descending FlightAware
Wed 09:58:17 PM 42.9540 -91.4050 100° East 475 547 31,000 -212 Descending FlightAware
Wed 09:58:57 PM 42.9370 -91.2950 102° East 475 547 31,000  Level FlightAware
Wed 09:59:37 PM 42.9170 -91.1740 103° East 476 548 31,000  Level FlightAware
Wed 10:00:22 PM 42.8950 -91.0420 103° East 476 548 31,000  Level FlightAware
Wed 10:01:02 PM 42.8760 -90.9250 102° East 475 547 31,000  Level FlightAware
Wed 10:01:47 PM 42.8550 -90.8010 103° East 475 547 31,000 -282 Level FlightAware
Wed 10:02:27 PM 42.8340 -90.6750 103° East 473 544 30,600 -2,118 Descending FlightAware
Wed 10:03:12 PM 42.8110 -90.5410 103° East 484 557 28,000 -2,824 Descending FlightAware
Wed 10:03:52 PM 42.7910 -90.4200 103° East 486 559 26,600 -2,025 Descending FlightAware
Wed 10:04:32 PM 42.7710 -90.3070 104° East 475 547 25,300 -1,553 Descending FlightAware
Wed 10:05:17 PM 42.7500 -90.1810 103° East 442 509 24,400 -918 Descending FlightAware
Wed 10:05:57 PM 42.7310 -90.0740 104° East 431 496 24,000 -300 Descending FlightAware
Wed 10:06:37 PM 42.7130 -89.9690 103° East 430 495 24,000  Level FlightAware
Wed 10:07:22 PM 42.6920 -89.8500 103° East 435 501 24,000  Level FlightAware
Wed 10:08:02 PM 42.6730 -89.7450 104° East 435 501 24,000 -635 Level FlightAware
Wed 10:08:47 PM 42.6520 -89.6240 103° East 431 496 23,100 -1,341 Descending FlightAware
Wed 10:09:27 PM 42.6330 -89.5180 104° East 423 487 22,100 -1,425 Descending FlightAware
Wed 10:10:07 PM 42.6150 -89.4170 104° East 413 475 21,200 -1,341 Descending FlightAware
Wed 10:10:52 PM 42.5950 -89.3070 104° East 410 472 20,200 -1,412 Descending FlightAware
Wed 10:11:32 PM 42.5770 -89.2090 104° East 403 464 19,200 -1,624 Descending FlightAware
Wed 10:12:17 PM 42.5560 -89.0980 104° East 392 451 17,900 -1,906 Descending FlightAware
Wed 10:12:57 PM 42.5280 -89.0060 112° Southeast 397 457 16,500 -2,250 Descending FlightAware
Wed 10:13:37 PM 42.5000 -88.9140 112° Southeast 391 450 14,900 -2,188 Descending FlightAware
Wed 10:14:22 PM 42.4720 -88.8180 112° Southeast 375 432 13,400 -2,400 Descending FlightAware
Wed 10:15:02 PM 42.4450 -88.7320 113° Southeast 363 418 11,500 -2,259 Descending FlightAware
Wed 10:15:47 PM 42.4170 -88.6390 112° Southeast 332 382 10,200 -1,371 Descending FlightAware
Wed 10:16:12 PM 42.4030 -88.5920 112° Southeast 306 352 9,900 -1,091 Descending FlightAware
Wed 10:16:42 PM 42.3890 -88.5430 111° Southeast 296 341 9,200 -1,000 Descending FlightAware
Wed 10:17:12 PM 42.3730 -88.4910 113° Southeast 291 335 8,900 -218 Descending FlightAware
Wed 10:17:37 PM 42.3610 -88.4510 112° Southeast 290 334 9,000 -655 Climbing FlightAware
Wed 10:18:07 PM 42.3420 -88.3990 116° Southeast 293 337 8,300 -1,400 Descending FlightAware
Wed 10:18:37 PM 42.3230 -88.3510 118° Southeast 291 335 7,600 -1,418 Descending FlightAware
Wed 10:19:02 PM 42.3080 -88.3120 117° Southeast 287 330 7,000 -764 Descending FlightAware
Wed 10:19:32 PM 42.2840 -88.2670 126° Southeast 283 326 6,900 -700 Descending FlightAware
Wed 10:20:02 PM 42.2560 -88.2340 139° Southeast 283 326 6,300 -1,309 Descending FlightAware
Wed 10:20:27 PM 42.2300 -88.2040 139° Southeast 281 323 5,700 -1,350 Descending FlightAware
Wed 10:20:42 PM 42.2150 -88.1870 140° Southeast 280 322 5,400 -1,200 Descending FlightAware
Wed 10:21:12 PM 42.1860 -88.1550 141° Southeast 280 322 4,800 -1,200 Descending FlightAware
Wed 10:21:37 PM 42.1600 -88.1250 139° Southeast 274 315 4,300 -1,029 Descending FlightAware
Wed 10:21:47 PM 42.1510 -88.1150 141° Southeast 269 310 4,200 -533 Descending FlightAware
Wed 10:22:22 PM 42.1200 -88.0790 139° Southeast 235 270 3,900 -480 Descending FlightAware
Wed 10:22:37 PM 42.1080 -88.0660 141° Southeast 228 262 3,800 -450 Descending FlightAware
Wed 10:23:02 PM 42.0900 -88.0450 139° Southeast 206 237 3,600 -982 Descending FlightAware
Wed 10:23:32 PM 42.0690 -88.0220 141° Southeast 187 215 2,900 -1,500 Descending FlightAware
Wed 10:23:42 PM 42.0630 -88.0140 135° Southeast 186 214 2,600 -1,200 Descending FlightAware
Wed 10:24:12 PM 42.0430 -87.9920 141° Southeast 162 186 2,100 -982 Descending FlightAware
Wed 10:24:37 PM 42.0300 -87.9780 141° Southeast 143 165 1,700 -873 Descending FlightAware
Wed 10:25:07 PM 42.0150 -87.9610 140° Southeast 144 166 1,300 -840 Descending FlightAware
Wed 10:25:27 PM 42.0040 -87.9490 141° Southeast 145 167 1,000 -840 Descending FlightAware
Wed 10:25:57 PM 41.9900 -87.9330 140° Southeast 148 170 600 -800 Descending FlightAware

Login

Don't have an account? Register now (free) for customized features, flight alerts, and more!